createdAt,value
2022-11-29T00:02:44.694Z,15.53
2022-11-29T00:07:46.940Z,14.67
2022-11-29T00:12:49.486Z,14.27
2022-11-29T00:17:53.035Z,16.30
2022-11-29T00:22:55.236Z,15.90
2022-11-29T00:27:57.168Z,15.40
2022-11-29T00:33:00.723Z,14.90
2022-11-29T00:38:02.817Z,16.40
2022-11-29T00:43:04.938Z,15.20
2022-11-29T00:48:08.256Z,16.73
2022-11-29T00:53:10.379Z,15.87
2022-11-29T00:58:12.404Z,15.73
2022-11-29T01:03:16.420Z,15.77
2022-11-29T01:08:18.556Z,15.67
2022-11-29T01:13:20.626Z,15.17
2022-11-29T01:18:24.278Z,16.90
2022-11-29T01:23:26.843Z,16.83
2022-11-29T01:28:29.775Z,16.23
2022-11-29T01:33:33.444Z,16.80
2022-11-29T01:38:36.470Z,16.53
2022-11-29T01:43:55.324Z,16.87
2022-11-29T01:49:03.838Z,16.57
2022-11-29T01:54:06.624Z,15.07
2022-11-29T01:59:12.973Z,15.43
2022-11-29T02:04:18.644Z,16.07
2022-11-29T02:09:22.994Z,15.57
2022-11-29T02:14:40.401Z,16.47
2022-11-29T02:20:08.853Z,15.73
2022-11-29T02:25:31.245Z,14.37
2022-11-29T02:30:53.965Z,16.57
2022-11-29T02:36:24.324Z,15.53
2022-11-29T02:41:44.699Z,14.23
2022-11-29T02:46:57.041Z,13.77
2022-11-29T02:52:02.606Z,15.47
2022-11-29T02:57:16.204Z,15.40
2022-11-29T03:02:24.933Z,17.03
2022-11-29T03:07:39.333Z,16.10
2022-11-29T03:12:46.635Z,16.83
2022-11-29T03:18:04.152Z,17.03
2022-11-29T03:23:22.198Z,15.90
2022-11-29T03:28:31.334Z,15.00
2022-11-29T03:33:45.570Z,15.50
2022-11-29T03:38:53.110Z,17.00
2022-11-29T03:44:00.300Z,15.70
2022-11-29T03:49:06.720Z,17.10
2022-11-29T03:54:15.348Z,16.43
2022-11-29T03:59:30.182Z,16.17
2022-11-29T04:05:05.056Z,16.27
2022-11-29T04:10:20.804Z,16.13
2022-11-29T04:15:57.443Z,17.13
2022-11-29T04:21:30.576Z,16.83
2022-11-29T04:26:57.936Z,16.93
2022-11-29T04:32:47.536Z,16.57
2022-11-29T04:38:16.662Z,16.13
2022-11-29T04:43:49.934Z,16.17
2022-11-29T04:49:06.441Z,16.47
2022-11-29T04:54:20.906Z,16.47
2022-11-29T04:59:30.844Z,17.13
2022-11-29T05:04:41.052Z,16.23
2022-11-29T05:09:58.838Z,16.97
2022-11-29T05:15:49.382Z,17.37
2022-11-29T05:20:58.067Z,16.30
2022-11-29T05:26:05.522Z,16.87
2022-11-29T05:31:25.189Z,17.00
2022-11-29T05:36:40.038Z,14.70
2022-11-29T05:42:05.194Z,16.60
2022-11-29T05:47:09.800Z,16.27
2022-11-29T05:52:36.512Z,16.57
2022-11-29T05:57:46.665Z,16.03
2022-11-29T06:02:58.613Z,16.07
2022-11-29T06:08:07.125Z,17.33
2022-11-29T06:13:20.838Z,16.93
2022-11-29T06:18:38.095Z,16.77
2022-11-29T06:23:55.750Z,14.57
2022-11-29T06:29:17.921Z,17.83
2022-11-29T06:34:31.043Z,16.37
2022-11-29T06:39:33.529Z,17.03
2022-11-29T06:44:36.208Z,16.90
2022-11-29T06:49:47.217Z,17.53
2022-11-29T06:55:03.091Z,17.00
2022-11-29T07:00:12.752Z,15.83
2022-11-29T07:05:23.788Z,16.47
2022-11-29T07:10:27.644Z,18.13
2022-11-29T07:15:30.172Z,16.57
2022-11-29T07:20:41.450Z,16.63
2022-11-29T07:25:53.090Z,18.40
2022-11-29T07:31:05.382Z,18.80
2022-11-29T07:36:14.823Z,17.47
2022-11-29T07:41:23.287Z,17.60
2022-11-29T07:46:25.579Z,16.60
2022-11-29T07:51:28.831Z,18.60
2022-11-29T07:56:30.854Z,17.07
2022-11-29T08:01:33.044Z,19.03
2022-11-29T08:06:36.480Z,18.03
2022-11-29T08:11:39.631Z,17.10
2022-11-29T08:16:41.740Z,17.97
2022-11-29T08:21:45.511Z,17.93
2022-11-29T08:26:47.664Z,18.20
2022-11-29T08:31:51.184Z,17.83
2022-11-29T08:36:56.291Z,16.60
2022-11-29T08:41:58.417Z,17.50
2022-11-29T08:47:00.753Z,17.23
2022-11-29T08:52:04.149Z,17.80
2022-11-29T08:57:38.147Z,16.57
2022-11-29T09:02:27.995Z,16.37
2022-11-29T09:07:31.659Z,17.50
2022-11-29T09:12:34.917Z,16.30
2022-11-29T09:17:37.263Z,16.67
2022-11-29T09:22:40.286Z,15.47
2022-11-29T09:27:45.140Z,16.77
2022-11-29T09:32:47.297Z,16.90
2022-11-29T09:37:51.034Z,15.90
2022-11-29T09:43:00.319Z,16.83
2022-11-29T09:48:37.267Z,16.93
2022-11-29T09:53:53.596Z,17.30
2022-11-29T09:58:59.542Z,15.50
2022-11-29T10:04:04.876Z,15.90
2022-11-29T10:09:17.238Z,15.40
2022-11-29T10:14:22.626Z,16.13
2022-11-29T10:19:30.944Z,15.90
2022-11-29T10:24:34.948Z,15.00
2022-11-29T10:29:37.072Z,15.03
2022-11-29T10:34:40.191Z,15.47
2022-11-29T10:39:47.253Z,15.57
2022-11-29T10:44:49.032Z,14.27
2022-11-29T10:49:51.440Z,15.07
2022-11-29T10:54:58.952Z,14.90
2022-11-29T11:00:05.066Z,15.57
2022-11-29T11:05:14.590Z,14.67
2022-11-29T11:10:27.667Z,14.00
2022-11-29T11:15:31.352Z,15.50
2022-11-29T11:20:35.875Z,14.53
2022-11-29T11:25:40.811Z,14.47
2022-11-29T11:30:51.346Z,13.63
2022-11-29T11:36:09.444Z,14.27
2022-11-29T11:41:23.903Z,14.90
2022-11-29T11:46:47.306Z,15.17
2022-11-29T11:51:50.456Z,13.77
2022-11-29T11:56:53.796Z,14.87
2022-11-29T12:01:55.951Z,13.13
2022-11-29T12:07:00.667Z,12.70
2022-11-29T12:12:15.228Z,13.20
2022-11-29T12:17:26.627Z,14.50
2022-11-29T12:22:35.780Z,14.60
2022-11-29T12:27:39.391Z,15.43
2022-11-29T12:33:03.734Z,14.23
2022-11-29T12:38:18.674Z,14.20
2022-11-29T12:43:32.114Z,14.87
2022-11-29T12:48:43.361Z,14.17
2022-11-29T12:53:59.422Z,13.53
2022-11-29T12:59:15.412Z,13.53
2022-11-29T13:04:25.424Z,13.53
2022-11-29T13:09:46.654Z,13.43
2022-11-29T13:14:57.572Z,14.30
2022-11-29T13:20:04.148Z,15.33
2022-11-29T13:25:15.346Z,14.57
2022-11-29T13:30:19.277Z,15.33
2022-11-29T13:35:25.229Z,14.20
2022-11-29T13:40:36.298Z,14.50
2022-11-29T13:45:46.904Z,14.57
2022-11-29T13:50:49.512Z,14.80
2022-11-29T13:55:55.822Z,15.37
2022-11-29T14:01:02.309Z,14.53
2022-11-29T14:06:31.639Z,15.93
2022-11-29T14:11:44.447Z,15.37
2022-11-29T14:16:50.337Z,15.73
2022-11-29T14:22:27.245Z,14.63
2022-11-29T14:27:55.933Z,16.87
2022-11-29T14:33:04.913Z,16.97
2022-11-29T14:38:14.334Z,17.17
2022-11-29T14:43:21.757Z,17.63
2022-11-29T14:48:27.034Z,17.67
2022-11-29T14:53:33.973Z,17.63
2022-11-29T14:58:35.897Z,19.13
2022-11-29T15:03:46.126Z,17.00
2022-11-29T15:08:54.377Z,17.67
2022-11-29T15:14:04.222Z,18.83
2022-11-29T15:19:33.778Z,17.23
2022-11-29T15:24:50.596Z,16.80
2022-11-29T15:29:52.692Z,18.43
2022-11-29T15:34:56.747Z,18.87
2022-11-29T15:40:03.831Z,18.57
2022-11-29T15:45:28.380Z,17.90
2022-11-29T15:50:33.665Z,17.77
2022-11-29T15:55:35.756Z,19.20
2022-11-29T16:00:38.287Z,19.43
2022-11-29T16:05:42.207Z,18.13
2022-11-29T16:10:46.973Z,18.07
2022-11-29T16:15:48.755Z,17.93
2022-11-29T16:21:00.127Z,19.17
2022-11-29T16:26:11.621Z,17.80
2022-11-29T16:31:18.091Z,19.63
2022-11-29T16:36:25.393Z,17.47
2022-11-29T16:41:32.270Z,19.33
2022-11-29T16:46:36.571Z,18.93
2022-11-29T16:51:46.180Z,18.97
2022-11-29T16:56:48.444Z,18.90
2022-11-29T17:01:51.224Z,19.73
2022-11-29T17:06:55.720Z,20.00
2022-11-29T17:11:58.500Z,19.63
2022-11-29T17:17:03.122Z,19.53
2022-11-29T17:22:06.848Z,19.03
2022-11-29T17:27:08.929Z,19.57
2022-11-29T17:32:10.982Z,19.17
2022-11-29T17:37:14.276Z,20.00
2022-11-29T17:42:16.025Z,18.57
2022-11-29T17:47:17.744Z,19.07
2022-11-29T17:52:20.900Z,20.47
2022-11-29T17:57:22.900Z,20.07
2022-11-29T18:02:25.032Z,19.03
2022-11-29T18:07:28.436Z,18.90
2022-11-29T18:12:30.737Z,20.03
2022-11-29T18:17:32.760Z,20.60
2022-11-29T18:22:36.133Z,20.23
2022-11-29T18:27:38.025Z,21.77
2022-11-29T18:32:40.002Z,20.20
2022-11-29T18:38:13.618Z,19.97
2022-11-29T18:43:05.633Z,21.50
2022-11-29T18:48:07.702Z,21.20
2022-11-29T18:53:11.323Z,22.17
2022-11-29T18:58:13.766Z,20.10
2022-11-29T19:03:16.053Z,23.10
2022-11-29T19:08:19.547Z,19.67
2022-11-29T19:13:21.951Z,20.13
2022-11-29T19:18:23.917Z,20.67
2022-11-29T19:23:27.276Z,20.57
2022-11-29T19:28:29.257Z,22.03
2022-11-29T19:33:31.297Z,21.27
2022-11-29T19:38:35.948Z,20.77
2022-11-29T19:43:38.259Z,21.20
2022-11-29T19:48:40.760Z,19.23
2022-11-29T19:53:45.250Z,20.47
2022-11-29T19:58:47.534Z,23.17
2022-11-29T20:03:50.421Z,20.87
2022-11-29T20:08:54.409Z,22.40
2022-11-29T20:13:58.452Z,22.07
2022-11-29T20:19:01.356Z,21.87
2022-11-29T20:24:07.379Z,20.70
2022-11-29T20:29:10.541Z,20.97
2022-11-29T20:34:14.728Z,19.83
2022-11-29T20:39:31.007Z,20.63
2022-11-29T20:44:37.560Z,21.17
2022-11-29T20:49:40.471Z,22.60
2022-11-29T20:54:43.834Z,20.77
2022-11-29T20:59:46.275Z,20.87
2022-11-29T21:04:54.219Z,19.87
2022-11-29T21:10:01.642Z,22.17
2022-11-29T21:15:05.320Z,22.23
2022-11-29T21:20:09.080Z,19.97
2022-11-29T21:25:20.545Z,19.27
2022-11-29T21:30:24.678Z,18.53
2022-11-29T21:35:26.497Z,19.67
2022-11-29T21:40:31.271Z,18.53
2022-11-29T21:45:32.910Z,19.90
2022-11-29T21:50:34.626Z,19.97
2022-11-29T21:55:38.083Z,19.77
2022-11-29T22:00:39.771Z,18.90
2022-11-29T22:05:42.076Z,19.07
2022-11-29T22:10:45.548Z,20.70
2022-11-29T22:15:47.795Z,19.90
2022-11-29T22:20:49.740Z,19.30
2022-11-29T22:25:52.746Z,18.77
2022-11-29T22:31:02.150Z,20.00
2022-11-29T22:36:05.818Z,20.10
2022-11-29T22:41:10.911Z,19.27
2022-11-29T22:46:16.141Z,19.13
2022-11-29T22:51:20.028Z,18.97
2022-11-29T22:56:24.250Z,18.83
2022-11-29T23:01:27.910Z,17.37
2022-11-29T23:06:32.386Z,19.33
2022-11-29T23:11:35.838Z,19.70
2022-11-29T23:16:38.227Z,18.93
2022-11-29T23:21:41.218Z,19.40
2022-11-29T23:26:46.519Z,20.33
2022-11-29T23:31:49.040Z,19.43
2022-11-29T23:36:53.173Z,18.63
2022-11-29T23:41:56.814Z,19.60
2022-11-29T23:46:58.813Z,20.37
2022-11-29T23:52:00.436Z,19.40
2022-11-29T23:57:05.356Z,18.93
